Griffith Spring, Arkansas
Current Conditions -  °F | °C
As of 6:02 AM on Tuesday 21 Oct 2014 (Local Time) from KPBF Reporting Station
Haze Haze  
Wind Chill: 55°   Ceiling: Unl
Heat Index: 55°   Visibility: 2mi
Dew Point: 54°   Wind: 0mph
Humidity: 96%   Direction: NA
Pressure: 30.06"   Gusts: NA
Location:  33.924°N, 91.8685°W
Report Text: KPBF 211102Z AUTO 00000KT 2SM BR CLR 13/12 A3006 RMK AO2 T01280122
Loading
Personal Weather Stations






























Interactive Weather Map
Tropical Storm Tracking
New forecast layout! Learn more

10-Day Weather Forecast

Advertisements
Track Severe Weather on mobile